Time;durP1;ratioP1;P1;durP2;ratioP2;P2;SDS_P1;SDS_P2;PMS_P1;PMS_P2;Temp;Humidity;BMP_temperature;BMP_pressure;BME280_temperature;BME280_humidity;BME280_pressure;Samples;Min_cycle;Max_cycle;Signal;HPM_P1;HPM_P2
2021/10/16 00:04:15;;;;;;;26.77;19.40;;;;;;;;;;10316151;28;20060;-65
2021/10/16 00:09:15;;;;;;;25.08;18.13;;;;;;;;;;10318244;28;20481;-64
2021/10/16 00:14:13;;;;;;;30.38;20.35;;;;;;;;;;10304765;28;20076;-64
2021/10/16 00:19:12;;;;;;;25.35;20.67;;;;;;;;;;10305470;28;20135;-64
2021/10/16 00:24:10;;;;;;;30.58;19.90;;;;;;;;;;10302762;28;20076;-64
2021/10/16 00:29:10;;;;;;;28.90;20.65;;;;;;;;;;10297976;28;20482;-65
2021/10/16 00:34:08;;;;;;;29.00;20.45;;;;;;;;;;10301080;28;20056;-65
2021/10/16 00:39:06;;;;;;;27.92;19.58;;;;;;;;;;10300192;28;20087;-65
2021/10/16 00:44:13;;;;;;;26.15;19.35;;;;;;;;;;10300585;28;20439;-64
2021/10/16 00:49:11;;;;;;;23.33;16.75;;;;;;;;;;10298111;28;20090;-65
2021/10/16 00:54:10;;;;;;;23.65;17.60;;;;;;;;;;10313371;28;20075;-64
2021/10/16 00:59:08;;;;;;;26.63;16.45;;;;;;;;;;10316294;28;20084;-64
2021/10/16 01:04:08;;;;;;;24.40;19.58;;;;;;;;;;10301933;28;20068;-64
2021/10/16 01:09:13;;;;;;;31.58;23.08;;;;;;;;;;10304655;28;20068;-64
2021/10/16 01:14:12;;;;;;;26.95;21.90;;;;;;;;;;10313417;28;20534;-65
2021/10/16 01:19:13;;;;;;;24.95;21.15;;;;;;;;;;10315186;28;20079;-63
2021/10/16 01:24:13;;;;;;;31.65;21.52;;;;;;;;;;10298817;28;20068;-64
2021/10/16 01:29:15;;;;;;;26.55;20.73;;;;;;;;;;10300058;28;20047;-65
2021/10/16 01:34:13;;;;;;;27.33;22.25;;;;;;;;;;10298907;28;20083;-65
2021/10/16 01:39:13;;;;;;;25.33;20.40;;;;;;;;;;10288833;28;20350;-64
2021/10/16 01:44:15;;;;;;;27.77;21.17;;;;;;;;;;10289797;28;20080;-64
2021/10/16 01:49:14;;;;;;;29.70;21.15;;;;;;;;;;10295843;28;20072;-64
2021/10/16 01:54:14;;;;;;;26.33;20.45;;;;;;;;;;10294217;28;20040;-65
2021/10/16 01:59:24;;;;;;;29.35;21.10;;;;;;;;;;10299818;28;20111;-64
2021/10/16 02:04:55;;;;;;;26.45;21.35;;;;;;;;;;10294258;28;20064;-65
2021/10/16 02:09:55;;;;;;;26.15;21.00;;;;;;;;;;10293711;28;20044;-65
2021/10/16 02:14:53;;;;;;;27.83;21.52;;;;;;;;;;10298931;28;20449;-64
2021/10/16 02:19:53;;;;;;;31.35;20.70;;;;;;;;;;10293372;28;20078;-64
2021/10/16 02:24:52;;;;;;;24.30;20.48;;;;;;;;;;10296665;28;20147;-65
2021/10/16 02:29:52;;;;;;;27.70;20.95;;;;;;;;;;10289031;28;20072;-65
2021/10/16 02:34:51;;;;;;;39.53;28.52;;;;;;;;;;10310766;28;20072;-64
2021/10/16 02:39:51;;;;;;;24.85;22.13;;;;;;;;;;10306863;28;20103;-65
2021/10/16 02:44:52;;;;;;;29.75;23.15;;;;;;;;;;10308707;28;20040;-64
2021/10/16 02:49:50;;;;;;;31.38;23.92;;;;;;;;;;10311992;28;20075;-65
2021/10/16 02:54:48;;;;;;;35.50;23.48;;;;;;;;;;10312886;28;20064;-65
2021/10/16 02:59:47;;;;;;;31.10;23.00;;;;;;;;;;10294440;28;20077;-65
2021/10/16 03:04:47;;;;;;;35.35;23.90;;;;;;;;;;10310489;28;20044;-64
2021/10/16 03:09:46;;;;;;;30.98;23.58;;;;;;;;;;10311401;28;20506;-65
2021/10/16 03:14:47;;;;;;;31.55;22.48;;;;;;;;;;10291290;28;20088;-66
2021/10/16 03:19:46;;;;;;;29.60;21.52;;;;;;;;;;10305250;28;20072;-65
2021/10/16 03:24:47;;;;;;;24.65;18.77;;;;;;;;;;10314202;28;20516;-64
2021/10/16 03:29:45;;;;;;;22.77;19.35;;;;;;;;;;10301261;28;20071;-64
2021/10/16 03:34:44;;;;;;;22.52;18.42;;;;;;;;;;10304563;28;20065;-65
2021/10/16 03:39:43;;;;;;;22.75;19.58;;;;;;;;;;10316695;28;20094;-65
2021/10/16 03:44:42;;;;;;;21.48;18.98;;;;;;;;;;10314061;28;20076;-65
2021/10/16 03:49:43;;;;;;;26.60;20.77;;;;;;;;;;10302868;28;20069;-65
2021/10/16 03:54:43;;;;;;;29.42;20.77;;;;;;;;;;10304787;28;20080;-65
2021/10/16 03:59:43;;;;;;;26.90;21.17;;;;;;;;;;10303157;28;20080;-64
2021/10/16 04:04:41;;;;;;;26.77;21.20;;;;;;;;;;10301316;28;20076;-64
2021/10/16 04:09:40;;;;;;;23.95;20.98;;;;;;;;;;10300010;28;20060;-65
2021/10/16 04:14:40;;;;;;;27.13;20.75;;;;;;;;;;10299469;28;20071;-65
2021/10/16 04:19:39;;;;;;;26.48;19.40;;;;;;;;;;10302749;28;20079;-65
2021/10/16 04:24:37;;;;;;;24.17;19.27;;;;;;;;;;10299612;28;20075;-64
2021/10/16 04:29:35;;;;;;;23.38;18.85;;;;;;;;;;10237890;28;20152;-66
2021/10/16 04:34:41;;;;;;;22.07;19.80;;;;;;;;;;10235381;28;20085;-65
2021/10/16 04:39:39;;;;;;;28.75;21.50;;;;;;;;;;10296883;28;20088;-64
2021/10/16 04:44:38;;;;;;;23.27;20.77;;;;;;;;;;10315494;28;20436;-65
2021/10/16 04:49:39;;;;;;;19.05;15.88;;;;;;;;;;10317233;28;20075;-65
2021/10/16 04:54:42;;;;;;;17.45;14.75;;;;;;;;;;10297284;28;20064;-64
2021/10/16 04:59:42;;;;;;;19.50;14.80;;;;;;;;;;10299270;28;20088;-65
2021/10/16 05:04:41;;;;;;;13.48;12.10;;;;;;;;;;10302687;28;20099;-65
2021/10/16 05:09:42;;;;;;;14.88;13.25;;;;;;;;;;10313442;28;20051;-64
2021/10/16 05:14:43;;;;;;;14.48;12.93;;;;;;;;;;10314741;28;20474;-65
2021/10/16 05:19:42;;;;;;;16.08;14.38;;;;;;;;;;10312278;28;20080;-66
2021/10/16 05:24:42;;;;;;;18.05;13.68;;;;;;;;;;10300285;28;20052;-66
2021/10/16 05:29:41;;;;;;;15.77;14.18;;;;;;;;;;10291911;28;20502;-66
2021/10/16 05:34:41;;;;;;;16.73;15.02;;;;;;;;;;10309778;28;20072;-66
2021/10/16 05:39:42;;;;;;;16.05;14.23;;;;;;;;;;10310870;28;20486;-66
2021/10/16 05:44:41;;;;;;;17.95;16.05;;;;;;;;;;10309117;28;20091;-64
2021/10/16 05:49:39;;;;;;;18.30;15.32;;;;;;;;;;10286582;28;20065;-64
2021/10/16 05:54:38;;;;;;;16.60;14.90;;;;;;;;;;10295374;28;20080;-64
2021/10/16 05:59:38;;;;;;;15.52;13.93;;;;;;;;;;10289009;28;20087;-64
2021/10/16 06:04:37;;;;;;;19.02;16.05;;;;;;;;;;10293098;28;20095;-64
2021/10/16 06:09:35;;;;;;;23.42;18.45;;;;;;;;;;10293462;28;20072;-65
2021/10/16 06:14:34;;;;;;;28.98;23.27;;;;;;;;;;10299802;28;20084;-65
2021/10/16 06:19:48;;;;;;;27.42;23.02;;;;;;;;;;10309637;28;20095;-64
2021/10/16 06:24:48;;;;;;;28.15;23.27;;;;;;;;;;10285728;28;20077;-66
2021/10/16 06:29:46;;;;;;;25.88;21.08;;;;;;;;;;10280293;28;20057;-65
2021/10/16 06:34:45;;;;;;;19.58;17.58;;;;;;;;;;10274298;28;20072;-67
2021/10/16 06:39:45;;;;;;;15.13;13.35;;;;;;;;;;10278680;28;20583;-68
2021/10/16 06:44:43;;;;;;;14.07;12.65;;;;;;;;;;10288732;28;20567;-67
2021/10/16 06:50:06;;;;;;;49.20;36.58;;;;;;;;;;10278307;28;20080;-67
2021/10/16 06:55:06;;;;;;;15.65;12.32;;;;;;;;;;10277550;28;20068;-66
2021/10/16 07:00:06;;;;;;;17.02;14.55;;;;;;;;;;10273758;28;20088;-67
2021/10/16 07:05:07;;;;;;;16.42;14.38;;;;;;;;;;10281017;28;20072;-68
2021/10/16 07:10:07;;;;;;;21.05;18.95;;;;;;;;;;10284865;28;20135;-67
2021/10/16 07:15:06;;;;;;;24.73;21.92;;;;;;;;;;10275310;28;20069;-67
2021/10/16 07:20:07;;;;;;;27.25;24.27;;;;;;;;;;10276245;28;20084;-67
2021/10/16 07:25:07;;;;;;;20.50;18.42;;;;;;;;;;10286625;28;20076;-67
2021/10/16 07:30:06;;;;;;;26.98;21.88;;;;;;;;;;10270849;28;20084;-67
2021/10/16 07:35:05;;;;;;;22.33;18.08;;;;;;;;;;10276127;28;20079;-67
2021/10/16 07:40:04;;;;;;;26.63;21.13;;;;;;;;;;10267296;28;20127;-66
2021/10/16 07:45:04;;;;;;;42.95;30.10;;;;;;;;;;10276293;28;20525;-66
2021/10/16 07:50:03;;;;;;;22.90;18.63;;;;;;;;;;10277890;28;20067;-67
2021/10/16 07:55:01;;;;;;;24.48;21.17;;;;;;;;;;10289318;28;20071;-67
2021/10/16 08:00:00;;;;;;;21.85;18.58;;;;;;;;;;10273567;28;20317;-67
2021/10/16 08:05:01;;;;;;;20.77;17.42;;;;;;;;;;10272084;28;20067;-67
2021/10/16 08:10:00;;;;;;;26.83;19.67;;;;;;;;;;10277183;28;20073;-67
2021/10/16 08:14:58;;;;;;;23.60;17.27;;;;;;;;;;10268196;28;20092;-67
2021/10/16 08:19:56;;;;;;;26.42;21.05;;;;;;;;;;10286195;28;20073;-67
2021/10/16 08:24:56;;;;;;;45.67;31.33;;;;;;;;;;10300316;28;20075;-67
2021/10/16 08:29:54;;;;;;;36.95;25.80;;;;;;;;;;10293007;28;20061;-68
2021/10/16 08:34:52;;;;;;;30.70;22.70;;;;;;;;;;10272449;28;20083;-68
2021/10/16 08:39:51;;;;;;;36.00;24.40;;;;;;;;;;10274824;28;20092;-67
2021/10/16 08:44:57;;;;;;;44.22;33.25;;;;;;;;;;10281566;28;20060;-68
2021/10/16 08:49:57;;;;;;;22.65;20.33;;;;;;;;;;10270154;28;20060;-67
2021/10/16 08:54:57;;;;;;;15.00;13.57;;;;;;;;;;10269832;28;20076;-68
2021/10/16 08:59:56;;;;;;;20.95;18.33;;;;;;;;;;10280743;28;20067;-68
2021/10/16 09:05:09;;;;;;;15.95;13.82;;;;;;;;;;10274350;28;20079;-67
2021/10/16 09:10:20;;;;;;;20.60;18.45;;;;;;;;;;10273952;28;20183;-67
2021/10/16 09:15:23;;;;;;;21.30;16.77;;;;;;;;;;10272123;28;20179;-67
2021/10/16 09:20:32;;;;;;;18.58;14.65;;;;;;;;;;10255926;28;20068;-68
2021/10/16 09:25:30;;;;;;;16.20;14.50;;;;;;;;;;10274122;28;20493;-67
2021/10/16 09:30:31;;;;;;;25.17;21.95;;;;;;;;;;10271992;28;20501;-67
2021/10/16 09:35:34;;;;;;;23.98;20.67;;;;;;;;;;10276181;28;20077;-67
2021/10/16 09:40:36;;;;;;;20.98;18.77;;;;;;;;;;10270376;28;20147;-68
2021/10/16 09:45:36;;;;;;;23.40;20.23;;;;;;;;;;10275085;28;20509;-67
2021/10/16 09:50:34;;;;;;;22.05;18.52;;;;;;;;;;10274936;28;20085;-69
2021/10/16 09:55:33;;;;;;;23.88;18.25;;;;;;;;;;10274004;28;20069;-67
2021/10/16 10:00:32;;;;;;;25.20;20.13;;;;;;;;;;10288908;28;20103;-66
2021/10/16 10:05:32;;;;;;;30.23;23.88;;;;;;;;;;10290599;28;20076;-67
2021/10/16 10:10:34;;;;;;;19.20;17.08;;;;;;;;;;10293042;28;20065;-67
2021/10/16 10:15:33;;;;;;;25.02;19.40;;;;;;;;;;10294565;28;20405;-67
2021/10/16 10:20:33;;;;;;;24.17;18.55;;;;;;;;;;10286106;28;20065;-68
2021/10/16 10:25:31;;;;;;;38.25;33.38;;;;;;;;;;10288188;28;20068;-67
2021/10/16 10:30:39;;;;;;;71.68;63.85;;;;;;;;;;10295256;28;20080;-68
2021/10/16 10:35:39;;;;;;;81.13;65.93;;;;;;;;;;10264640;28;20068;-66
2021/10/16 10:40:57;;;;;;;201.40;172.95;;;;;;;;;;10250032;28;20073;-70
2021/10/16 10:46:06;;;;;;;110.82;96.25;;;;;;;;;;10289789;28;20072;-67
2021/10/16 10:51:06;;;;;;;32.45;27.52;;;;;;;;;;10284188;28;20065;-67
2021/10/16 10:56:07;;;;;;;26.88;23.95;;;;;;;;;;10289653;28;20068;-67
2021/10/16 11:01:05;;;;;;;23.60;21.02;;;;;;;;;;10285182;28;20077;-67
2021/10/16 11:06:17;;;;;;;21.30;19.00;;;;;;;;;;10284251;28;20130;-67
2021/10/16 11:11:16;;;;;;;106.78;77.65;;;;;;;;;;10288886;28;20068;-68
2021/10/16 11:16:15;;;;;;;19.35;16.98;;;;;;;;;;10309652;28;20060;-68
2021/10/16 11:21:13;;;;;;;38.72;32.00;;;;;;;;;;10304033;28;20079;-68
2021/10/16 11:26:14;;;;;;;45.40;31.63;;;;;;;;;;10305594;28;20060;-68
2021/10/16 11:31:12;;;;;;;52.58;43.13;;;;;;;;;;10309018;28;20067;-68
2021/10/16 11:36:13;;;;;;;58.20;43.03;;;;;;;;;;10298815;28;20071;-67
2021/10/16 11:41:13;;;;;;;99.78;71.57;;;;;;;;;;10302869;28;20087;-67
2021/10/16 11:46:16;;;;;;;82.50;73.72;;;;;;;;;;10305211;28;20069;-67
2021/10/16 11:51:14;;;;;;;31.02;27.65;;;;;;;;;;10298725;28;20068;-68
2021/10/16 11:56:14;;;;;;;27.17;24.38;;;;;;;;;;10305897;28;20430;-68
2021/10/16 12:01:13;;;;;;;34.63;30.98;;;;;;;;;;10305228;28;20060;-69
2021/10/16 12:06:12;;;;;;;33.75;26.83;;;;;;;;;;10271680;28;20068;-68
2021/10/16 12:11:18;;;;;;;39.30;35.08;;;;;;;;;;10300471;28;20060;-68
2021/10/16 12:16:17;;;;;;;51.83;46.42;;;;;;;;;;10291998;28;20064;-68
2021/10/16 12:21:24;;;;;;;37.17;32.38;;;;;;;;;;10302353;28;20469;-68
2021/10/16 12:26:26;;;;;;;35.50;31.95;;;;;;;;;;10292158;28;20068;-68
2021/10/16 12:31:24;;;;;;;39.75;35.70;;;;;;;;;;10300490;28;20075;-67
2021/10/16 12:36:26;;;;;;;39.78;35.50;;;;;;;;;;10299794;28;20574;-68
2021/10/16 12:41:33;;;;;;;39.10;30.90;;;;;;;;;;10297196;28;20075;-68
2021/10/16 12:46:31;;;;;;;40.25;35.85;;;;;;;;;;10304813;28;20513;-68
2021/10/16 12:51:36;;;;;;;39.00;30.50;;;;;;;;;;10292748;28;20463;-68
2021/10/16 12:56:36;;;;;;;41.45;32.25;;;;;;;;;;10306569;28;20068;-68
2021/10/16 13:01:34;;;;;;;42.70;37.15;;;;;;;;;;10310094;28;20045;-68
2021/10/16 13:06:34;;;;;;;66.35;48.78;;;;;;;;;;10301129;28;20476;-68
2021/10/16 13:11:32;;;;;;;232.07;164.68;;;;;;;;;;10291226;28;20510;-68
2021/10/16 13:16:32;;;;;;;59.15;44.22;;;;;;;;;;10285313;28;20076;-68
2021/10/16 13:21:30;;;;;;;77.32;55.22;;;;;;;;;;10288455;28;20072;-68
2021/10/16 13:26:28;;;;;;;46.33;33.97;;;;;;;;;;10286546;28;20090;-68
2021/10/16 13:31:27;;;;;;;36.50;31.38;;;;;;;;;;10294909;28;20083;-68
2021/10/16 13:36:27;;;;;;;24.08;21.02;;;;;;;;;;10284400;28;20064;-68
2021/10/16 13:41:25;;;;;;;21.98;17.85;;;;;;;;;;10290446;28;20064;-69
2021/10/16 13:46:23;;;;;;;28.23;23.67;;;;;;;;;;10301354;28;20068;-67
2021/10/16 13:51:23;;;;;;;28.52;24.77;;;;;;;;;;10288313;28;20135;-68
2021/10/16 13:56:23;;;;;;;39.13;31.98;;;;;;;;;;10292377;28;20068;-67
2021/10/16 14:01:22;;;;;;;76.25;56.47;;;;;;;;;;10308457;28;20040;-68
2021/10/16 14:06:20;;;;;;;49.50;41.67;;;;;;;;;;10303156;28;20075;-67
2021/10/16 14:11:18;;;;;;;31.63;28.10;;;;;;;;;;10293636;28;20068;-67
2021/10/16 14:16:18;;;;;;;22.15;19.60;;;;;;;;;;10287780;28;20072;-67
2021/10/16 14:21:17;;;;;;;15.88;13.95;;;;;;;;;;10296657;28;20102;-67
2021/10/16 14:26:15;;;;;;;28.02;22.85;;;;;;;;;;10286288;28;20064;-68
2021/10/16 14:31:15;;;;;;;46.58;33.65;;;;;;;;;;10300105;28;20052;-67
2021/10/16 14:36:15;;;;;;;54.72;38.30;;;;;;;;;;10265660;28;20498;-67
2021/10/16 14:41:13;;;;;;;31.52;28.23;;;;;;;;;;10302273;28;20463;-67
2021/10/16 14:46:11;;;;;;;24.13;20.85;;;;;;;;;;10298703;28;20505;-67
2021/10/16 14:51:10;;;;;;;27.85;24.20;;;;;;;;;;10289679;28;20480;-66
2021/10/16 14:56:09;;;;;;;34.35;28.15;;;;;;;;;;10295072;28;20081;-66
2021/10/16 15:01:08;;;;;;;28.23;23.52;;;;;;;;;;10299437;28;20076;-67
2021/10/16 15:06:07;;;;;;;33.13;26.33;;;;;;;;;;10311219;28;20081;-66
2021/10/16 15:11:05;;;;;;;38.67;34.60;;;;;;;;;;10310850;28;20079;-66
2021/10/16 15:16:05;;;;;;;26.17;23.58;;;;;;;;;;10299393;28;20072;-67
2021/10/16 15:21:04;;;;;;;28.35;25.52;;;;;;;;;;10298752;28;20149;-69
2021/10/16 15:26:02;;;;;;;28.95;23.95;;;;;;;;;;10304678;28;20081;-66
2021/10/16 15:31:00;;;;;;;20.20;17.23;;;;;;;;;;10303617;28;20065;-66
2021/10/16 15:36:00;;;;;;;95.70;68.03;;;;;;;;;;10300982;28;20038;-67
2021/10/16 15:40:58;;;;;;;20.65;15.23;;;;;;;;;;10301305;28;20087;-67
2021/10/16 15:45:57;;;;;;;34.95;26.33;;;;;;;;;;10300390;28;20068;-67
2021/10/16 15:50:55;;;;;;;31.30;23.17;;;;;;;;;;10298026;28;20076;-66
2021/10/16 15:55:55;;;;;;;33.13;25.90;;;;;;;;;;10299501;28;20131;-66
2021/10/16 16:00:53;;;;;;;30.40;21.88;;;;;;;;;;10311891;28;20075;-68
2021/10/16 16:05:52;;;;;;;38.15;27.60;;;;;;;;;;10314610;28;20500;-67
2021/10/16 16:10:50;;;;;;;34.47;26.70;;;;;;;;;;10307387;28;20071;-66
2021/10/16 16:15:50;;;;;;;26.55;23.75;;;;;;;;;;10304457;28;20061;-66
2021/10/16 16:20:48;;;;;;;20.58;17.02;;;;;;;;;;10289242;28;20068;-65
2021/10/16 16:25:47;;;;;;;22.55;15.65;;;;;;;;;;10272412;28;20136;-66
2021/10/16 16:30:45;;;;;;;22.58;18.10;;;;;;;;;;10267306;28;20129;-67
2021/10/16 16:35:45;;;;;;;21.42;17.02;;;;;;;;;;10296962;28;20061;-67
2021/10/16 16:40:43;;;;;;;25.05;21.27;;;;;;;;;;10297710;28;20075;-66
2021/10/16 16:45:41;;;;;;;22.65;19.85;;;;;;;;;;10298708;28;20065;-66
2021/10/16 16:50:40;;;;;;;28.63;23.25;;;;;;;;;;10300881;28;20167;-66
2021/10/16 16:55:39;;;;;;;35.55;27.77;;;;;;;;;;10297847;28;20060;-62
2021/10/16 17:00:37;;;;;;;28.10;22.52;;;;;;;;;;10299182;28;20034;-67
2021/10/16 17:05:36;;;;;;;40.40;26.55;;;;;;;;;;10300689;28;20068;-67
2021/10/16 17:10:34;;;;;;;51.55;31.20;;;;;;;;;;10297276;28;20069;-67
2021/10/16 17:15:34;;;;;;;31.02;23.83;;;;;;;;;;10302500;28;20075;-67
2021/10/16 17:20:32;;;;;;;31.13;22.88;;;;;;;;;;10297299;28;20075;-67
2021/10/16 17:25:31;;;;;;;32.50;23.83;;;;;;;;;;10301134;28;20087;-65
2021/10/16 17:30:29;;;;;;;30.92;24.73;;;;;;;;;;10300149;28;20072;-65
2021/10/16 17:35:30;;;;;;;25.02;18.25;;;;;;;;;;10300343;28;20073;-65
2021/10/16 17:40:28;;;;;;;25.83;20.80;;;;;;;;;;10300260;28;20510;-63
2021/10/16 17:45:27;;;;;;;23.20;17.70;;;;;;;;;;10295328;28;20092;-65
2021/10/16 17:50:35;;;;;;;24.85;19.20;;;;;;;;;;10299654;28;20508;-65
2021/10/16 17:55:33;;;;;;;25.75;20.77;;;;;;;;;;10298055;28;20079;-65
2021/10/16 18:00:32;;;;;;;32.95;22.40;;;;;;;;;;10298085;28;20107;-65
2021/10/16 18:05:30;;;;;;;27.92;20.52;;;;;;;;;;10298021;28;20099;-64
2021/10/16 18:10:30;;;;;;;28.85;20.83;;;;;;;;;;10294530;28;20581;-65
2021/10/16 18:15:28;;;;;;;30.73;22.58;;;;;;;;;;10297304;28;20080;-65
2021/10/16 18:20:27;;;;;;;47.28;29.98;;;;;;;;;;10295703;28;20704;-64
2021/10/16 18:25:26;;;;;;;57.83;35.20;;;;;;;;;;10296117;28;20091;-65
2021/10/16 18:30:25;;;;;;;59.83;38.78;;;;;;;;;;10294518;28;20091;-66
2021/10/16 18:35:24;;;;;;;60.53;40.53;;;;;;;;;;10295053;28;20083;-65
2021/10/16 18:40:22;;;;;;;28.90;23.70;;;;;;;;;;10295754;28;20052;-65
2021/10/16 18:45:20;;;;;;;19.90;16.50;;;;;;;;;;10298272;28;20106;-65
2021/10/16 18:50:20;;;;;;;35.65;27.80;;;;;;;;;;10297026;28;20095;-64
2021/10/16 18:55:18;;;;;;;22.17;19.67;;;;;;;;;;10298582;28;20072;-64
2021/10/16 19:00:17;;;;;;;22.98;18.85;;;;;;;;;;10305989;28;20071;-65
2021/10/16 19:05:15;;;;;;;25.17;21.65;;;;;;;;;;10306410;28;20517;-65
2021/10/16 19:10:16;;;;;;;23.67;20.83;;;;;;;;;;10321198;28;20079;-65
2021/10/16 19:15:14;;;;;;;19.27;17.23;;;;;;;;;;10314131;28;20301;-66
2021/10/16 19:20:13;;;;;;;29.35;22.75;;;;;;;;;;10308164;28;20094;-64
2021/10/16 19:25:12;;;;;;;34.13;26.80;;;;;;;;;;10319295;28;20068;-65
2021/10/16 19:30:12;;;;;;;22.95;19.83;;;;;;;;;;10304632;28;20068;-66
2021/10/16 19:35:10;;;;;;;33.03;26.83;;;;;;;;;;10303674;28;20067;-66
2021/10/16 19:40:09;;;;;;;31.38;24.48;;;;;;;;;;10302876;28;20076;-65
2021/10/16 19:45:09;;;;;;;30.95;22.80;;;;;;;;;;10307867;28;20079;-64
2021/10/16 19:50:09;;;;;;;35.58;27.92;;;;;;;;;;10307981;28;20075;-65
2021/10/16 19:55:08;;;;;;;29.10;22.23;;;;;;;;;;10307402;28;20079;-65
2021/10/16 20:00:07;;;;;;;28.10;22.60;;;;;;;;;;10308111;28;20532;-65
2021/10/16 20:05:10;;;;;;;44.90;38.55;;;;;;;;;;10321571;28;20087;-66
2021/10/16 20:10:10;;;;;;;24.35;20.73;;;;;;;;;;10317547;28;20091;-65
2021/10/16 20:15:09;;;;;;;17.92;15.52;;;;;;;;;;10317252;28;20064;-64
2021/10/16 20:20:07;;;;;;;22.27;18.17;;;;;;;;;;10305607;28;20072;-66
2021/10/16 20:25:08;;;;;;;26.15;20.10;;;;;;;;;;10306277;28;20068;-66
2021/10/16 20:30:07;;;;;;;24.38;18.13;;;;;;;;;;10295596;28;20041;-66
2021/10/16 20:35:06;;;;;;;19.65;17.02;;;;;;;;;;10299393;28;20421;-66
2021/10/16 20:40:05;;;;;;;18.73;15.55;;;;;;;;;;10299694;28;20507;-65
2021/10/16 20:45:06;;;;;;;18.80;14.35;;;;;;;;;;10304023;28;20501;-66
2021/10/16 20:50:06;;;;;;;29.80;19.45;;;;;;;;;;10299763;28;20481;-64
2021/10/16 20:55:04;;;;;;;27.42;17.08;;;;;;;;;;10300653;28;20080;-66
2021/10/16 21:00:05;;;;;;;25.17;17.60;;;;;;;;;;10302529;28;20044;-66
2021/10/16 21:05:04;;;;;;;30.30;18.30;;;;;;;;;;10301077;28;20083;-66
2021/10/16 21:10:03;;;;;;;24.48;15.05;;;;;;;;;;10300289;28;20045;-66
2021/10/16 21:15:01;;;;;;;17.35;14.93;;;;;;;;;;10297809;28;20068;-65
2021/10/16 21:20:02;;;;;;;19.52;14.85;;;;;;;;;;10298494;28;20075;-66
2021/10/16 21:25:00;;;;;;;19.45;15.65;;;;;;;;;;10300182;28;20084;-66
2021/10/16 21:29:59;;;;;;;27.63;20.88;;;;;;;;;;10296747;28;20056;-66
2021/10/16 21:35:08;;;;;;;20.20;18.10;;;;;;;;;;10296130;28;20036;-66
2021/10/16 21:40:07;;;;;;;16.30;13.23;;;;;;;;;;10296495;28;20084;-65
2021/10/16 21:45:05;;;;;;;16.63;14.75;;;;;;;;;;10299216;28;20122;-65
2021/10/16 21:50:06;;;;;;;17.30;13.55;;;;;;;;;;10297975;28;20496;-65
2021/10/16 21:55:07;;;;;;;16.65;13.75;;;;;;;;;;10296818;28;20497;-65
2021/10/16 22:00:11;;;;;;;15.13;12.80;;;;;;;;;;10300499;28;20072;-64
2021/10/16 22:05:11;;;;;;;17.73;15.68;;;;;;;;;;10271981;28;20076;-65
2021/10/16 22:10:11;;;;;;;16.67;14.57;;;;;;;;;;10298913;28;20080;-66
2021/10/16 22:15:09;;;;;;;23.90;17.92;;;;;;;;;;10302748;28;20076;-64
2021/10/16 22:20:08;;;;;;;24.48;21.80;;;;;;;;;;10299063;28;20506;-64
2021/10/16 22:25:08;;;;;;;17.20;14.45;;;;;;;;;;10297775;28;20068;-64
2021/10/16 22:30:09;;;;;;;16.80;14.18;;;;;;;;;;10295152;28;20064;-66
2021/10/16 22:35:09;;;;;;;15.35;13.45;;;;;;;;;;10259977;28;20073;-64
2021/10/16 22:40:08;;;;;;;15.93;12.43;;;;;;;;;;10297865;28;20052;-63
2021/10/16 22:45:09;;;;;;;15.25;12.27;;;;;;;;;;10303670;28;20037;-66
2021/10/16 22:50:09;;;;;;;15.55;12.90;;;;;;;;;;10300369;28;20561;-63
2021/10/16 22:55:09;;;;;;;14.38;12.10;;;;;;;;;;10299597;28;20076;-63
2021/10/16 23:00:12;;;;;;;13.57;11.73;;;;;;;;;;10299685;28;20093;-64
2021/10/16 23:05:10;;;;;;;17.65;14.68;;;;;;;;;;10298839;28;20548;-65
2021/10/16 23:10:09;;;;;;;17.90;14.10;;;;;;;;;;10301231;28;20069;-63
2021/10/16 23:15:10;;;;;;;15.65;13.32;;;;;;;;;;10299737;28;20076;-63
2021/10/16 23:20:09;;;;;;;18.52;14.30;;;;;;;;;;10297421;28;20084;-63
2021/10/16 23:25:27;;;;;;;24.30;17.02;;;;;;;;;;10287507;28;20799;-65
2021/10/16 23:30:27;;;;;;;23.42;18.17;;;;;;;;;;10300504;28;20464;-65
2021/10/16 23:35:25;;;;;;;16.98;13.50;;;;;;;;;;10297894;28;20068;-65
2021/10/16 23:40:23;;;;;;;16.60;13.23;;;;;;;;;;10293936;28;20513;-64
2021/10/16 23:45:22;;;;;;;21.85;15.48;;;;;;;;;;10303316;28;20532;-65
2021/10/16 23:50:23;;;;;;;17.02;14.57;;;;;;;;;;10307250;28;20317;-64
2021/10/16 23:55:21;;;;;;;21.25;15.75;;;;;;;;;;10302735;28;20498;-66
